Time;durP1;ratioP1;P1;durP2;ratioP2;P2;SDS_P1;SDS_P2;PMS_P1;PMS_P2;Temp;Humidity;BMP_temperature;BMP_pressure;BME280_temperature;BME280_humidity;BME280_pressure;Samples;Min_cycle;Max_cycle;Signal;HPM_P1;HPM_P2
2022/06/06 00:00:46;;;;;;;356.85;338.65;;;17.30;99.90;;;;;;5031173;28;20679;-72
2022/06/06 00:03:14;;;;;;;374.80;356.52;;;17.20;99.90;;;;;;5033553;28;20180;-70
2022/06/06 00:05:44;;;;;;;366.58;348.63;;;17.10;99.90;;;;;;5032998;28;20538;-69
2022/06/06 00:08:14;;;;;;;372.85;354.58;;;17.10;99.90;;;;;;5021292;28;20191;-69
2022/06/06 00:10:41;;;;;;;367.60;349.48;;;17.00;99.90;;;;;;5031279;28;20194;-69
2022/06/06 00:13:08;;;;;;;408.10;387.77;;;17.00;99.90;;;;;;5030779;28;20185;-69
2022/06/06 00:15:34;;;;;;;396.58;377.05;;;17.10;99.90;;;;;;5032066;28;20175;-69
2022/06/06 00:18:00;;;;;;;415.58;394.85;;;17.00;99.90;;;;;;5021618;28;20542;-69
2022/06/06 00:20:26;;;;;;;424.48;403.83;;;17.10;99.90;;;;;;5032341;28;20178;-69
2022/06/06 00:22:51;;;;;;;453.02;430.33;;;17.10;99.90;;;;;;5024482;28;20265;-70
2022/06/06 00:25:17;;;;;;;467.38;444.48;;;17.10;99.90;;;;;;5011964;28;20531;-69
2022/06/06 00:27:42;;;;;;;476.15;452.58;;;17.00;99.90;;;;;;5015036;28;20190;-70
2022/06/06 00:30:09;;;;;;;405.35;385.45;;;16.90;99.90;;;;;;5015609;28;20241;-70
2022/06/06 00:35:20;;;;;;;394.98;375.65;;;16.90;99.90;;;;;;5022581;28;20186;-70
2022/06/06 00:37:50;;;;;;;448.58;426.48;;;17.00;99.90;;;;;;5027533;28;20190;-69
2022/06/06 00:40:18;;;;;;;423.63;402.48;;;16.80;99.90;;;;;;5032169;28;20648;-69
2022/06/06 00:42:44;;;;;;;376.17;358.20;;;16.80;99.90;;;;;;5032329;28;20179;-69
2022/06/06 00:45:28;;;;;;;381.33;362.52;;;16.90;99.90;;;;;;5044174;28;20179;-69
2022/06/06 00:47:54;;;;;;;412.77;392.17;;;16.90;99.90;;;;;;5031422;28;20214;-69
2022/06/06 00:50:24;;;;;;;433.88;412.90;;;16.80;99.90;;;;;;5018788;28;20757;-70
2022/06/06 00:52:52;;;;;;;433.95;412.20;;;17.00;99.90;;;;;;5048005;28;20182;-69
2022/06/06 00:55:23;;;;;;;473.00;449.10;;;17.00;99.90;;;;;;5032431;28;20637;-70
2022/06/06 00:57:54;;;;;;;484.67;459.85;;;16.90;99.90;;;;;;5021061;28;20523;-70
2022/06/06 01:00:21;;;;;;;476.33;452.50;;;16.80;99.90;;;;;;5024077;28;20191;-69
2022/06/06 01:02:50;;;;;;;482.52;458.65;;;16.90;99.90;;;;;;5031657;28;20524;-69
2022/06/06 01:05:18;;;;;;;494.70;469.50;;;16.90;99.90;;;;;;5032314;28;20186;-70
2022/06/06 01:07:43;;;;;;;442.92;420.60;;;16.80;99.90;;;;;;5028152;28;20700;-69
2022/06/06 01:10:10;;;;;;;492.60;467.50;;;16.90;99.90;;;;;;5024070;28;20293;-69
2022/06/06 01:12:38;;;;;;;485.20;461.00;;;16.90;99.90;;;;;;5028061;28;20190;-70
2022/06/06 01:15:09;;;;;;;434.25;413.13;;;16.80;99.90;;;;;;5027078;28;20175;-70
2022/06/06 01:17:56;;;;;;;465.45;441.88;;;16.70;99.90;;;;;;5029917;28;20233;-69
2022/06/06 01:20:28;;;;;;;428.65;408.08;;;16.50;99.90;;;;;;5031218;28;20391;-69
2022/06/06 01:22:56;;;;;;;393.80;374.83;;;16.50;99.90;;;;;;5029390;28;20274;-69
2022/06/06 01:26:02;;;;;;;391.08;372.58;;;16.50;99.90;;;;;;5025710;28;20206;-69
2022/06/06 01:28:36;;;;;;;381.73;363.58;;;16.40;99.90;;;;;;5029683;28;20305;-69
2022/06/06 01:31:07;;;;;;;351.15;334.45;;;16.30;99.90;;;;;;5045320;28;20198;-69
2022/06/06 01:33:52;;;;;;;353.45;336.13;;;16.30;99.90;;;;;;5022310;28;20214;-69
2022/06/06 01:36:19;;;;;;;317.58;301.98;;;16.20;99.90;;;;;;5027646;28;20174;-69
2022/06/06 01:38:45;;;;;;;302.05;287.23;;;16.20;99.90;;;;;;5025361;28;20183;-69
2022/06/06 01:41:18;;;;;;;343.15;325.50;;;16.20;99.90;;;;;;5012144;28;20225;-69
2022/06/06 01:44:00;;;;;;;310.73;296.13;;;16.10;99.90;;;;;;5032250;28;20179;-69
2022/06/06 01:46:29;;;;;;;291.83;277.83;;;16.00;99.90;;;;;;5031690;28;20178;-70
2022/06/06 01:48:56;;;;;;;308.80;294.13;;;16.00;99.90;;;;;;5031578;28;20672;-69
2022/06/06 01:51:28;;;;;;;296.77;282.05;;;16.00;99.90;;;;;;5029396;28;20193;-70
2022/06/06 01:53:54;;;;;;;280.65;266.98;;;16.00;99.90;;;;;;5031987;28;20260;-69
2022/06/06 01:56:27;;;;;;;270.08;257.10;;;15.80;99.90;;;;;;5013752;28;20283;-70
2022/06/06 01:58:53;;;;;;;257.38;244.32;;;15.80;99.90;;;;;;5019858;28;20269;-69
2022/06/06 02:01:19;;;;;;;229.20;217.70;;;15.80;99.90;;;;;;5030195;28;20317;-69
2022/06/06 02:03:45;;;;;;;252.48;239.82;;;15.70;99.90;;;;;;5029998;28;20183;-69
2022/06/06 02:06:11;;;;;;;219.90;209.18;;;15.60;99.90;;;;;;5023297;28;20186;-70
2022/06/06 02:08:40;;;;;;;250.93;238.25;;;15.60;99.90;;;;;;5002758;28;20297;-69
2022/06/06 02:11:05;;;;;;;244.02;231.70;;;15.60;99.90;;;;;;5017449;28;20232;-69
2022/06/06 02:13:31;;;;;;;249.18;236.45;;;15.60;99.90;;;;;;5012862;28;20584;-70
2022/06/06 02:15:57;;;;;;;274.52;261.05;;;15.60;99.90;;;;;;5026550;28;20187;-69
2022/06/06 02:18:23;;;;;;;271.17;257.75;;;15.70;99.90;;;;;;5008905;28;20210;-69
2022/06/06 02:20:49;;;;;;;261.45;248.35;;;15.60;99.90;;;;;;5015368;28;20187;-70
2022/06/06 02:23:15;;;;;;;239.63;227.65;;;15.70;99.90;;;;;;5029367;28;20187;-69
2022/06/06 02:25:41;;;;;;;236.45;224.27;;;15.60;99.90;;;;;;5033680;28;20187;-67
2022/06/06 02:28:10;;;;;;;246.45;233.82;;;15.60;99.90;;;;;;5013939;28;20183;-68
2022/06/06 02:30:37;;;;;;;238.45;226.48;;;15.60;99.90;;;;;;5025942;28;20212;-70
2022/06/06 02:33:03;;;;;;;222.35;210.95;;;15.70;99.90;;;;;;5033427;28;20201;-70
2022/06/06 02:35:32;;;;;;;228.73;216.75;;;15.60;99.90;;;;;;5031245;28;20236;-70
2022/06/06 02:37:58;;;;;;;220.32;208.88;;;15.60;99.90;;;;;;5048134;28;20175;-67
2022/06/06 02:40:26;;;;;;;226.93;215.05;;;15.60;99.90;;;;;;5025302;28;20606;-67
2022/06/06 02:42:52;;;;;;;224.07;212.38;;;15.40;99.90;;;;;;5018867;28;20548;-68
2022/06/06 02:45:19;;;;;;;229.52;217.40;;;15.30;99.90;;;;;;5030821;28;20265;-67
2022/06/06 02:47:53;;;;;;;225.85;214.27;;;15.40;99.90;;;;;;5024001;28;20202;-67
2022/06/06 02:50:22;;;;;;;213.48;200.90;;;15.40;99.90;;;;;;5034576;28;20277;-67
2022/06/06 02:52:48;;;;;;;217.32;205.77;;;15.30;99.90;;;;;;5034698;28;20190;-69
2022/06/06 02:55:14;;;;;;;212.95;201.90;;;15.20;99.90;;;;;;5013689;28;20614;-68
2022/06/06 02:57:43;;;;;;;226.95;215.20;;;15.10;99.90;;;;;;5032809;28;20229;-68
2022/06/06 03:00:24;;;;;;;219.00;207.13;;;15.20;99.90;;;;;;5026306;28;20281;-68
2022/06/06 03:02:50;;;;;;;241.85;228.98;;;15.10;99.90;;;;;;5048408;28;20566;-68
2022/06/06 03:05:17;;;;;;;244.25;231.48;;;15.00;99.90;;;;;;5042952;28;20190;-68
2022/06/06 03:07:58;;;;;;;212.52;201.57;;;15.00;99.90;;;;;;5049973;28;20198;-68
2022/06/06 03:10:27;;;;;;;252.23;239.13;;;15.00;99.90;;;;;;5028562;28;20289;-68
2022/06/06 03:13:10;;;;;;;256.95;243.73;;;14.90;99.90;;;;;;5032374;28;20201;-68
2022/06/06 03:22:15;;;;;;;369.23;351.08;;;14.90;99.90;;;;;;5014649;28;20190;-69
2022/06/06 03:25:05;;;;;;;320.75;304.25;;;14.70;99.90;;;;;;5042896;28;20198;-68
2022/06/06 03:27:51;;;;;;;352.30;334.67;;;14.70;99.90;;;;;;5030711;28;20183;-67
2022/06/06 03:30:17;;;;;;;341.48;324.30;;;14.60;99.90;;;;;;5024128;28;20596;-68
2022/06/06 03:33:27;;;;;;;300.45;285.33;;;14.60;99.90;;;;;;5024028;28;20182;-67
2022/06/06 03:36:16;;;;;;;393.35;374.33;;;14.80;99.90;;;;;;5021785;28;20198;-69
2022/06/06 03:39:14;;;;;;;372.85;354.40;;;14.70;99.90;;;;;;5029156;28;20186;-67
2022/06/06 03:42:02;;;;;;;377.83;359.00;;;14.70;99.90;;;;;;5015966;28;20172;-67
2022/06/06 03:44:46;;;;;;;346.40;329.40;;;14.60;99.90;;;;;;5047952;28;20577;-68
2022/06/06 03:48:00;;;;;;;383.45;363.83;;;14.60;99.90;;;;;;5049739;28;20247;-68
2022/06/06 03:50:34;;;;;;;402.40;382.08;;;14.60;99.90;;;;;;5023513;28;20218;-67
2022/06/06 03:53:26;;;;;;;334.23;317.40;;;14.70;99.90;;;;;;5018594;28;20524;-69
2022/06/06 03:56:18;;;;;;;332.75;316.60;;;14.80;99.90;;;;;;5027795;28;20179;-67
2022/06/06 03:58:44;;;;;;;348.88;331.30;;;14.80;99.90;;;;;;5027478;28;20230;-67
2022/06/06 04:01:13;;;;;;;314.15;298.80;;;14.70;99.90;;;;;;5032693;28;20217;-67
2022/06/06 04:03:40;;;;;;;318.80;302.92;;;14.70;99.90;;;;;;5033409;28;20185;-67
2022/06/06 04:06:06;;;;;;;292.70;277.67;;;14.90;99.90;;;;;;5039293;28;20236;-68
2022/06/06 04:08:32;;;;;;;262.33;249.98;;;14.80;99.90;;;;;;5027903;28;20214;-67
2022/06/06 04:11:19;;;;;;;273.27;259.85;;;14.80;99.90;;;;;;5032412;28;20179;-68
2022/06/06 04:14:00;;;;;;;289.15;275.33;;;14.80;99.90;;;;;;5044950;28;20191;-67
2022/06/06 04:16:37;;;;;;;293.02;278.85;;;14.70;99.90;;;;;;5016336;28;20222;-67
2022/06/06 04:19:37;;;;;;;280.77;267.42;;;14.70;99.90;;;;;;5026526;28;20187;-68
2022/06/06 04:22:44;;;;;;;401.27;381.75;;;14.80;99.90;;;;;;5024353;28;20178;-67
2022/06/06 04:25:37;;;;;;;316.35;302.00;;;14.70;99.90;;;;;;5024614;28;20244;-67
2022/06/06 04:28:10;;;;;;;270.27;257.35;;;14.70;99.90;;;;;;5046941;28;20605;-67
2022/06/06 04:30:44;;;;;;;263.60;251.27;;;14.80;99.90;;;;;;5030806;28;20218;-67
2022/06/06 04:33:23;;;;;;;277.13;263.80;;;14.90;99.90;;;;;;5016895;28;20179;-67
2022/06/06 04:36:03;;;;;;;263.88;250.98;;;14.90;99.90;;;;;;5019859;28;20183;-66
2022/06/06 04:38:58;;;;;;;220.32;210.27;;;15.00;99.90;;;;;;5043645;28;20183;-67
2022/06/06 04:41:43;;;;;;;227.27;217.23;;;15.10;99.90;;;;;;5040772;28;20282;-67
2022/06/06 04:44:26;;;;;;;232.20;221.95;;;15.20;99.90;;;;;;5022577;28;20191;-66
2022/06/06 04:47:07;;;;;;;188.18;179.95;;;15.20;99.90;;;;;;5031962;28;20182;-66
2022/06/06 04:49:33;;;;;;;163.48;156.55;;;15.30;99.90;;;;;;5029093;28;20614;-67
2022/06/06 04:52:01;;;;;;;147.38;141.50;;;15.30;99.90;;;;;;5017081;28;20213;-67
2022/06/06 04:54:29;;;;;;;146.45;140.77;;;15.20;99.90;;;;;;5047931;28;20186;-67
2022/06/06 04:56:58;;;;;;;175.30;168.38;;;15.20;99.90;;;;;;5031981;28;20277;-68
2022/06/06 04:59:25;;;;;;;216.05;207.65;;;15.10;99.90;;;;;;5023165;28;20252;-66
2022/06/06 05:01:51;;;;;;;222.77;213.82;;;15.20;99.90;;;;;;5028112;28;20327;-67
2022/06/06 05:04:17;;;;;;;279.83;268.63;;;15.20;99.90;;;;;;5028915;28;20545;-66
2022/06/06 05:06:51;;;;;;;239.13;229.82;;;15.20;99.90;;;;;;5030698;28;20182;-67
2022/06/06 05:09:54;;;;;;;197.27;189.48;;;15.30;99.90;;;;;;5024123;28;20667;-87
2022/06/06 05:12:29;;;;;;;151.07;145.35;;;15.30;99.90;;;;;;5031199;28;20548;-88
2022/06/06 05:15:07;;;;;;;213.05;204.63;;;15.10;99.90;;;;;;5045571;28;20221;-85
2022/06/06 05:17:38;;;;;;;195.35;187.75;;;15.10;99.90;;;;;;5019677;28;20186;-75
2022/06/06 05:20:22;;;;;;;265.17;254.80;;;15.30;99.90;;;;;;5030314;28;20171;-68
2022/06/06 05:23:10;;;;;;;213.05;204.65;;;15.50;99.90;;;;;;5029721;28;20186;-69
2022/06/06 05:26:11;;;;;;;172.75;165.77;;;15.70;99.90;;;;;;5030095;28;20652;-71
2022/06/06 05:28:48;;;;;;;203.38;195.45;;;15.80;99.90;;;;;;5019206;28;20206;-71
2022/06/06 05:31:33;;;;;;;224.57;216.05;;;15.70;99.90;;;;;;5026017;28;20239;-71
2022/06/06 05:34:18;;;;;;;245.13;235.73;;;15.70;99.90;;;;;;5017697;28;20182;-71
2022/06/06 05:37:03;;;;;;;268.65;258.15;;;15.60;99.90;;;;;;5016992;28;20207;-71
2022/06/06 05:39:52;;;;;;;260.23;250.02;;;15.60;99.90;;;;;;5021263;28;20213;-69
2022/06/06 05:42:40;;;;;;;275.17;264.20;;;15.70;99.90;;;;;;5029171;28;20174;-68
2022/06/06 05:45:25;;;;;;;271.33;261.00;;;15.80;99.90;;;;;;5036103;28;20541;-69
2022/06/06 05:48:19;;;;;;;291.67;280.50;;;15.70;99.90;;;;;;5018048;28;20186;-74
2022/06/06 05:51:19;;;;;;;327.90;315.17;;;15.70;99.90;;;;;;5021818;28;20179;-72
2022/06/06 05:54:04;;;;;;;213.88;205.57;;;15.80;99.90;;;;;;5032392;28;20254;-71
2022/06/06 05:56:51;;;;;;;201.40;193.95;;;16.00;99.90;;;;;;5026588;28;20182;-70
2022/06/06 05:59:26;;;;;;;195.52;188.15;;;16.20;99.90;;;;;;5023399;28;20553;-72
2022/06/06 06:01:54;;;;;;;216.30;208.30;;;16.20;99.90;;;;;;5021470;28;20198;-70
2022/06/06 06:04:51;;;;;;;197.95;190.55;;;16.20;99.90;;;;;;5034215;28;20186;-76
2022/06/06 06:07:30;;;;;;;172.02;165.70;;;16.30;99.90;;;;;;5031263;28;20581;-74
2022/06/06 06:10:05;;;;;;;113.93;109.25;;;16.50;99.90;;;;;;5035195;28;20198;-72
2022/06/06 06:12:43;;;;;;;76.35;73.50;;;16.80;99.90;;;;;;5046571;28;20277;-73
2022/06/06 06:15:21;;;;;;;64.50;62.03;;;17.20;99.90;;;;;;5033165;28;20190;-72
2022/06/06 06:17:51;;;;;;;132.45;127.53;;;17.70;99.90;;;;;;5027454;28;20261;-71
2022/06/06 06:20:21;;;;;;;111.50;107.32;;;17.90;99.90;;;;;;5036144;28;20223;-73
2022/06/06 06:23:22;;;;;;;127.75;122.95;;;18.10;99.90;;;;;;5048051;28;20179;-73
2022/06/06 06:25:49;;;;;;;49.97;48.22;;;18.30;99.90;;;;;;5027760;28;20195;-73
2022/06/06 06:28:14;;;;;;;67.82;65.45;;;18.60;99.90;;;;;;5034595;28;20183;-72
2022/06/06 06:31:04;;;;;;;53.10;51.10;;;18.50;99.90;;;;;;5036032;28;20240;-74
2022/06/06 06:33:37;;;;;;;108.32;104.18;;;18.70;99.90;;;;;;5030245;28;20178;-73
2022/06/06 06:36:21;;;;;;;114.65;110.38;;;18.80;99.90;;;;;;5031895;28;20179;-73
2022/06/06 06:39:16;;;;;;;178.88;172.20;;;18.70;99.90;;;;;;5030204;28;20187;-73
2022/06/06 06:42:07;;;;;;;259.85;249.73;;;19.00;99.90;;;;;;5034652;28;20268;-72
2022/06/06 06:44:40;;;;;;;329.55;315.77;;;19.00;99.90;;;;;;5033474;28;20175;-73
2022/06/06 06:47:11;;;;;;;185.32;178.10;;;19.40;99.90;;;;;;5028086;28;20170;-74
2022/06/06 06:49:40;;;;;;;266.80;256.38;;;19.30;99.90;;;;;;5031797;28;20233;-74
2022/06/06 06:52:37;;;;;;;245.85;236.43;;;19.60;99.90;;;;;;5023409;28;20837;-71
2022/06/06 06:55:45;;;;;;;506.63;484.90;;;19.80;99.90;;;;;;5030374;28;20542;-74
2022/06/06 06:58:31;;;;;;;513.55;491.60;;;19.70;99.90;;;;;;5021288;28;20191;-70
2022/06/06 07:01:04;;;;;;;468.20;448.33;;;19.50;99.90;;;;;;5030399;28;20273;-69
2022/06/06 07:09:53;;;;;;;266.60;255.10;;;19.60;99.90;;;;;;5031340;28;20708;-69
2022/06/06 07:12:56;;;;;;;374.38;359.65;;;20.30;99.90;;;;;;5040245;28;20187;-68
2022/06/06 07:15:38;;;;;;;406.17;389.83;;;21.20;99.90;;;;;;5032925;28;20182;-67
2022/06/06 07:18:06;;;;;;;470.63;451.05;;;21.60;99.90;;;;;;5030413;28;20253;-71
2022/06/06 07:20:35;;;;;;;514.50;491.98;;;22.20;99.90;;;;;;5032472;28;20186;-73
2022/06/06 07:23:08;;;;;;;550.70;525.47;;;22.40;99.90;;;;;;5032751;28;20183;-71
2022/06/06 07:25:48;;;;;;;649.33;617.28;;;22.60;99.90;;;;;;5031294;28;20195;-73
2022/06/06 07:28:20;;;;;;;746.83;706.63;;;22.00;99.90;;;;;;5020647;28;20253;-73
2022/06/06 07:31:12;;;;;;;731.25;692.15;;;22.70;99.90;;;;;;5024509;28;20198;-73
2022/06/06 07:34:15;;;;;;;786.28;742.17;;;22.70;99.90;;;;;;5034587;28;20202;-74
2022/06/06 07:36:49;;;;;;;858.95;807.00;;;23.00;99.90;;;;;;5031773;28;20657;-72
2022/06/06 07:39:24;;;;;;;879.92;825.78;;;22.70;99.90;;;;;;5032420;28;20194;-77
2022/06/06 07:42:01;;;;;;;900.45;844.05;;;23.80;99.90;;;;;;5030233;28;20206;-74
2022/06/06 07:44:27;;;;;;;988.42;923.45;;;24.30;99.90;;;;;;5039604;28;20179;-74
2022/06/06 07:47:06;;;;;;;977.90;914.05;;;23.90;99.90;;;;;;5026713;28;20518;-77
2022/06/06 07:49:40;;;;;;;1018.13;949.65;;;23.00;99.90;;;;;;5026199;28;20207;-78
2022/06/06 07:52:18;;;;;;;1035.03;964.63;;;22.60;99.90;;;;;;5031868;28;20171;-74
2022/06/06 07:55:13;;;;;;;1034.22;963.35;;;22.60;99.90;;;;;;5026886;28;20174;-73
2022/06/06 07:57:57;;;;;;;1024.72;955.58;;;23.50;99.90;;;;;;5023965;28;20697;-73
2022/06/06 08:00:28;;;;;;;941.50;881.40;;;25.10;99.90;;;;;;5047931;28;20594;-75
2022/06/06 08:02:59;;;;;;;1048.50;976.47;;;25.30;99.90;;;;;;5042181;28;20178;-72
2022/06/06 08:06:09;;;;;;;1067.25;992.58;;;24.10;99.90;;;;;;5048864;28;20181;-73
2022/06/06 08:08:50;;;;;;;1080.15;999.90;;;23.90;99.90;;;;;;5034113;28;20559;-71
2022/06/06 08:11:55;;;;;;;1082.50;999.90;;;24.60;99.90;;;;;;5021933;28;20618;-72
2022/06/06 08:15:12;;;;;;;1085.30;999.90;;;24.50;99.90;;;;;;5023648;28;20276;-71
2022/06/06 08:18:03;;;;;;;1108.28;999.90;;;25.20;99.90;;;;;;5028880;28;20191;-71
2022/06/06 08:20:50;;;;;;;1115.35;999.90;;;25.30;99.90;;;;;;5027257;28;20198;-70
2022/06/06 08:23:17;;;;;;;1119.50;999.90;;;25.10;99.90;;;;;;5048058;28;20174;-70
2022/06/06 08:25:45;;;;;;;1117.93;999.90;;;24.30;99.90;;;;;;5028224;28;20214;-70
2022/06/06 08:28:12;;;;;;;1115.18;999.90;;;23.40;99.90;;;;;;5045741;28;20178;-71
2022/06/06 08:30:41;;;;;;;1118.03;999.90;;;23.70;99.90;;;;;;5041628;28;20250;-70
2022/06/06 08:33:06;;;;;;;1119.10;999.90;;;24.30;99.90;;;;;;5029868;28;20536;-71
2022/06/06 08:36:03;;;;;;;1116.03;999.90;;;25.00;99.90;;;;;;5032232;28;20181;-71
2022/06/06 08:38:51;;;;;;;1150.47;999.90;;;26.30;99.90;;;;;;5048682;28;20189;-71
2022/06/06 08:41:37;;;;;;;1170.50;999.90;;;27.60;99.90;;;;;;5030835;28;20182;-70
2022/06/06 08:44:32;;;;;;;1182.15;999.90;;;26.40;99.90;;;;;;5031003;28;20659;-72
2022/06/06 08:47:21;;;;;;;1187.20;999.90;;;26.00;99.90;;;;;;5030828;28;20586;-71
2022/06/06 08:53:09;;;;;;;1168.22;999.90;;;23.60;99.90;;;;;;5027061;28;20192;-71
2022/06/06 08:55:59;;;;;;;1164.57;999.90;;;24.90;99.90;;;;;;5025622;28;20674;-72
2022/06/06 08:58:48;;;;;;;1168.03;999.90;;;26.10;99.90;;;;;;5031147;28;20178;-70
2022/06/06 09:01:43;;;;;;;1173.40;999.90;;;25.00;99.90;;;;;;5045567;28;20202;-72
2022/06/06 09:04:26;;;;;;;1178.45;999.90;;;25.00;99.90;;;;;;5021888;28;20229;-71
2022/06/06 09:07:11;;;;;;;1192.78;999.90;;;25.10;99.90;;;;;;5040786;28;20706;-72
2022/06/06 09:10:03;;;;;;;1194.00;999.90;;;24.60;99.90;;;;;;5029379;28;20670;-70
2022/06/06 09:13:05;;;;;;;1193.75;999.90;;;23.40;99.90;;;;;;5019946;28;20262;-71
2022/06/06 09:15:44;;;;;;;1190.78;999.90;;;23.60;99.90;;;;;;5032736;28;20576;-71
2022/06/06 09:18:22;;;;;;;1198.00;999.90;;;24.80;99.90;;;;;;5028444;28;20688;-70
2022/06/06 09:20:54;;;;;;;1199.03;999.90;;;25.50;99.90;;;;;;5023565;28;20209;-71
2022/06/06 09:24:05;;;;;;;1185.22;999.90;;;25.10;99.90;;;;;;5028206;28;20178;-71
2022/06/06 09:26:55;;;;;;;1216.90;999.90;;;25.90;99.90;;;;;;5029948;28;20233;-70
2022/06/06 09:29:59;;;;;;;1225.10;999.90;;;26.20;99.90;;;;;;5018146;28;20664;-74
2022/06/06 09:32:33;;;;;;;1218.93;999.90;;;27.00;99.90;;;;;;5024778;28;20189;-74
2022/06/06 09:35:35;;;;;;;1216.32;999.90;;;26.60;99.90;;;;;;5018548;28;20572;-73
2022/06/06 09:38:21;;;;;;;1214.88;999.90;;;25.60;99.90;;;;;;5043431;28;20188;-72
2022/06/06 09:41:30;;;;;;;1213.40;999.90;;;24.40;99.90;;;;;;5031568;28;20647;-72
2022/06/06 09:44:04;;;;;;;1221.88;999.90;;;23.40;99.90;;;;;;5026278;28;20211;-71
2022/06/06 09:46:52;;;;;;;1216.63;999.90;;;22.80;99.90;;;;;;5028049;28;20248;-73
2022/06/06 09:49:26;;;;;;;1213.70;999.90;;;22.80;99.90;;;;;;5027190;28;20594;-73
2022/06/06 09:51:55;;;;;;;1209.85;999.90;;;22.90;99.90;;;;;;5018661;28;20216;-73
2022/06/06 10:00:47;;;;;;;1214.72;999.90;;;22.20;99.90;;;;;;5028810;28;20205;-73
2022/06/06 10:03:24;;;;;;;1217.65;999.90;;;22.10;99.90;;;;;;5020593;28;20281;-73
2022/06/06 10:06:08;;;;;;;1207.45;999.90;;;21.90;99.90;;;;;;5034822;28;20209;-74
2022/06/06 10:08:56;;;;;;;1203.85;999.90;;;21.80;99.90;;;;;;5023213;28;20261;-72
2022/06/06 10:11:58;;;;;;;1197.00;999.90;;;22.20;99.90;;;;;;5027027;28;20332;-72
2022/06/06 10:14:30;;;;;;;1198.00;999.90;;;22.40;99.90;;;;;;5019869;28;20679;-71
2022/06/06 10:17:26;;;;;;;1200.43;999.90;;;22.50;99.90;;;;;;5021417;28;20586;-72
2022/06/06 10:20:07;;;;;;;1208.47;999.90;;;22.60;99.90;;;;;;5017096;28;20170;-71
2022/06/06 10:22:48;;;;;;;1210.97;999.90;;;22.80;99.90;;;;;;5030254;28;20178;-72
2022/06/06 10:25:44;;;;;;;1215.05;999.90;;;22.90;99.90;;;;;;5038662;28;20197;-71
2022/06/06 10:28:22;;;;;;;1211.45;999.90;;;22.60;99.90;;;;;;5029486;28;20174;-72
2022/06/06 10:31:16;;;;;;;1210.82;999.90;;;23.20;99.90;;;;;;5044069;28;20195;-73
2022/06/06 10:34:28;;;;;;;1214.55;999.90;;;23.50;99.90;;;;;;5043937;28;20179;-71
2022/06/06 10:37:27;;;;;;;1214.60;999.90;;;23.20;99.90;;;;;;5028945;28;20273;-72
2022/06/06 10:40:31;;;;;;;1216.40;999.90;;;23.00;99.90;;;;;;5035459;28;20266;-71
2022/06/06 10:43:14;;;;;;;1220.68;999.90;;;22.50;99.90;;;;;;5023812;28;20310;-72
2022/06/06 10:46:02;;;;;;;1214.32;999.90;;;22.70;99.90;;;;;;5027644;28;20544;-72
2022/06/06 10:48:36;;;;;;;1216.45;999.90;;;23.30;99.90;;;;;;5025663;28;20261;-72
2022/06/06 10:53:55;;;;;;;1214.80;999.90;;;23.70;99.90;;;;;;5032882;28;20198;-72
2022/06/06 10:56:30;;;;;;;1213.68;999.90;;;23.20;99.90;;;;;;5032209;28;20237;-73
2022/06/06 10:59:03;;;;;;;1211.70;999.90;;;22.70;99.90;;;;;;5034276;28;20177;-71
2022/06/06 11:01:28;;;;;;;1216.07;999.90;;;22.60;99.90;;;;;;5038641;28;20539;-72
2022/06/06 11:04:28;;;;;;;1221.63;999.90;;;22.60;99.90;;;;;;5045345;28;20170;-71
2022/06/06 11:07:12;;;;;;;1221.82;999.90;;;22.50;99.90;;;;;;5046155;28;20178;-71
2022/06/06 11:10:16;;;;;;;1221.45;999.90;;;22.20;99.90;;;;;;5034910;28;20241;-71
2022/06/06 11:12:58;;;;;;;1227.45;999.90;;;22.10;99.90;;;;;;5025498;28;20297;-72
2022/06/06 11:15:50;;;;;;;1228.85;999.90;;;22.20;99.90;;;;;;5022376;28;20265;-71
2022/06/06 11:18:36;;;;;;;1225.05;999.90;;;22.10;99.90;;;;;;5027369;28;20660;-71
2022/06/06 11:21:43;;;;;;;1222.07;999.90;;;22.00;99.90;;;;;;5045430;28;20186;-72
2022/06/06 11:24:35;;;;;;;1214.28;999.90;;;21.70;99.90;;;;;;5007364;28;20195;-72
2022/06/06 11:27:27;;;;;;;1218.18;999.90;;;21.70;99.90;;;;;;5019077;28;20179;-72
2022/06/06 11:30:06;;;;;;;1221.82;999.90;;;21.80;99.90;;;;;;5046391;28;20210;-72
2022/06/06 11:33:00;;;;;;;1216.68;999.90;;;21.90;99.90;;;;;;5027471;28;20179;-72
2022/06/06 11:35:35;;;;;;;1220.22;999.90;;;22.20;99.90;;;;;;5023413;28;20190;-72
2022/06/06 11:38:01;;;;;;;1218.25;999.90;;;22.30;99.90;;;;;;5048834;28;20174;-73
2022/06/06 11:40:51;;;;;;;1217.20;999.90;;;22.50;99.90;;;;;;5033751;28;20189;-72
2022/06/06 11:43:16;;;;;;;1215.00;999.90;;;22.80;99.90;;;;;;5048897;28;20178;-72
2022/06/06 11:46:22;;;;;;;1219.15;999.90;;;22.90;99.90;;;;;;5024956;28;20670;-73
2022/06/06 11:48:56;;;;;;;1222.53;999.90;;;22.80;99.90;;;;;;5028881;28;20203;-72
2022/06/06 11:51:35;;;;;;;1210.35;999.90;;;22.30;99.90;;;;;;5047153;28;20186;-72
2022/06/06 11:54:19;;;;;;;1198.93;999.90;;;22.00;99.90;;;;;;5019789;28;20172;-71
2022/06/06 11:57:18;;;;;;;1204.82;999.90;;;21.60;99.90;;;;;;5026278;28;20190;-71
2022/06/06 12:00:17;;;;;;;1204.43;999.90;;;21.40;99.90;;;;;;5030241;28;20186;-71
2022/06/06 12:02:56;;;;;;;1209.53;999.90;;;21.60;99.90;;;;;;5025920;28;20611;-72
2022/06/06 12:05:22;;;;;;;1214.50;999.90;;;21.70;99.90;;;;;;5032835;28;20175;-72
2022/06/06 12:08:23;;;;;;;1210.68;999.90;;;21.70;99.90;;;;;;5023996;28;20183;-72
2022/06/06 12:11:13;;;;;;;1224.63;999.90;;;21.70;99.90;;;;;;5028389;28;20296;-72
2022/06/06 12:14:03;;;;;;;1217.45;999.90;;;21.70;99.90;;;;;;5032092;28;20276;-71
2022/06/06 12:16:39;;;;;;;1219.63;999.90;;;21.60;99.90;;;;;;5019866;28;20206;-70
2022/06/06 12:19:32;;;;;;;1220.85;999.90;;;21.50;99.90;;;;;;5018295;28;20175;-72
2022/06/06 12:22:07;;;;;;;1221.40;999.90;;;21.20;99.90;;;;;;5022195;28;20199;-72
2022/06/06 12:24:55;;;;;;;1218.50;999.90;;;21.50;99.90;;;;;;5029721;28;20726;-71
2022/06/06 12:27:26;;;;;;;1213.80;999.90;;;21.70;99.90;;;;;;5032556;28;20187;-72
2022/06/06 12:30:04;;;;;;;1220.90;999.90;;;21.30;99.90;;;;;;5026952;28;20249;-72
2022/06/06 12:32:46;;;;;;;1209.22;999.90;;;21.40;99.90;;;;;;5029015;28;20190;-72
2022/06/06 12:35:39;;;;;;;1217.60;999.90;;;21.60;99.90;;;;;;5016520;28;20210;-72
2022/06/06 12:38:08;;;;;;;1213.28;999.90;;;21.40;99.90;;;;;;5031192;28;20171;-73
2022/06/06 12:40:39;;;;;;;1209.90;999.90;;;21.50;99.90;;;;;;5038279;28;20196;-71
2022/06/06 12:43:36;;;;;;;1211.13;999.90;;;21.60;99.90;;;;;;5047939;28;20258;-72
2022/06/06 12:46:37;;;;;;;1214.55;999.90;;;21.30;99.90;;;;;;5030040;28;20183;-72
2022/06/06 12:49:21;;;;;;;1213.13;999.90;;;21.30;99.90;;;;;;4994068;28;20755;-72
2022/06/06 12:52:16;;;;;;;1220.20;999.90;;;21.40;99.90;;;;;;5029709;28;20191;-72
2022/06/06 12:57:48;;;;;;;1223.63;999.90;;;22.20;99.90;;;;;;5024842;28;20281;-72
2022/06/06 13:00:15;;;;;;;1222.13;999.90;;;22.40;99.90;;;;;;5030463;28;20221;-73
2022/06/06 13:02:49;;;;;;;1221.80;999.90;;;22.60;99.90;;;;;;5023055;28;20199;-72
2022/06/06 13:05:18;;;;;;;1216.50;999.90;;;22.80;99.90;;;;;;5030289;28;20186;-73
2022/06/06 13:08:20;;;;;;;1217.45;999.90;;;23.00;99.90;;;;;;5029219;28;20552;-73
2022/06/06 13:10:55;;;;;;;1221.30;999.90;;;23.10;99.90;;;;;;5020219;28;20194;-72
2022/06/06 13:13:46;;;;;;;1221.07;999.90;;;23.30;99.90;;;;;;5029761;28;20221;-72
2022/06/06 13:16:15;;;;;;;1227.20;999.90;;;23.10;99.90;;;;;;5013250;28;20183;-73
2022/06/06 13:19:16;;;;;;;1220.60;999.90;;;23.10;99.90;;;;;;5023855;28;20237;-73
2022/06/06 13:22:19;;;;;;;1223.50;999.90;;;22.50;99.90;;;;;;5025759;28;20659;-72
2022/06/06 13:25:22;;;;;;;1220.97;999.90;;;22.50;99.90;;;;;;5029294;28;20181;-72
2022/06/06 13:27:55;;;;;;;1223.35;999.90;;;22.40;99.90;;;;;;5031243;28;20185;-72
2022/06/06 13:30:37;;;;;;;1211.97;999.90;;;22.20;99.90;;;;;;5047402;28;20226;-72
2022/06/06 13:33:21;;;;;;;1219.15;999.90;;;22.20;99.90;;;;;;5014743;28;20218;-73
2022/06/06 13:36:07;;;;;;;1225.97;999.90;;;22.40;99.90;;;;;;5031018;28;20277;-73